Opal, WY (83124)

4:58 AM MDT on August 27, 2014 (GMT -0600)
Kemmerer | Change Station
CLOSE
Current Station
Personal Weather Station
Location: Kemmerer, WY
Elevation: 6985 ft
Nearby Weather Stations

Elev 6985 ft 41.80 °N, 110.54 °W | Updated 7 seconds ago

Overcast
Overcast
50.7 °F
Feels Like 50.7 °F
N
0.0
Wind Variable Wind from NE
Gusts 3.0 mph

Today
High -- | Low -- °F
--% Chance of Precip.
Yesterday
High -- | Low -- °F
Precip. -- in
6:42 AM 8:02 PM
Waxing Crescent, 3% visible
Pressure 30.30 in
Visibility 10.0 miles
Clouds Mostly Cloudy 7500 ft
Mostly Cloudy 10000 ft
Overcast 12000 ft
Dew Point 46 °F
Humidity 83%
Rainfall 0.00 in
Snow Depth Not available.
UV 0 out of 12
Pollen 8.10 out of 12
Air Quality Not available.
Flu Activity Not available.
METAR KEMM 271035Z AUTO 33005KT 10SM BKN075 BKN100 OVC120 10/07 A3030 RMK AO2

More Conditions Fewer Conditions

Pressure 30.30 in
Visibility 10.0 miles
Clouds Mostly Cloudy 7500 ft
Mostly Cloudy 10000 ft
Overcast 12000 ft
Dew Point 46 °F
Humidity 83%
Rainfall 0.00 in
Snow Depth Not available.
UV 0 out of 12
Pollen 8.10 out of 12
Air Quality Not available.
Flu Activity Not available.
METAR KEMM 271035Z AUTO 33005KT 10SM BKN075 BKN100 OVC120 10/07 A3030 RMK AO2

More Conditions Fewer Conditions

10-Day Weather Forecast

Almanac

Astronomy

Aug. 27, 2014 Rise Set
Actual Time 6:42 AM MDT 8:02 PM MDT
Civil Twilight 6:13 AM MDT 8:31 PM MDT
Nautical Twilight 5:38 AM MDT 9:06 PM MDT
Astronomical Twilight 5:01 AM MDT 9:42 PM MDT
Moon 8:43 AM MDT 8:53 PM MDT
Length of Visible Light 14h 18m
Length of Day
13h 20m
Tomorrow will be 2m 39s shorter.
Waxing Crescent, 3% of the Moon is Illuminated
Today
Waxing Crescent
Sep 2
First Quarter
Sep 8
Full
Sep 15
Last Quarter
Sep 24
New

Today's Extremes

State Highs State Lows

Community

WunderPhotos

Upload Photos

1,747,666 photos uploaded!

Nearby

Snow Depth

Station Depth Elevation
Hams Fork 0 in 7840 ft
Kelley R.S. 0 in 8180 ft
Spring Creek Divide 0 in 9000 ft
Salt River Summit 0 in 7600 ft
Willow Creek 5 in 8450 ft

Earthquake Activity

City Distance Mag. Time & Date
No recent earthquake activity has been reported nearby.
Minimum magnitude displayed is 2.5.

Coastal Water Temperatures

Place Temperature
No Stations Reporting

Nearby Weather Stations